メインページ
METAR-TAF:

METAR-TAF

空港 :

ペタワワ, オンタリオ州, カナダ

緯度: 45-57N, 経度: 077-19W, 海抜: 130m

現時点の気象観測

当レポートは36分前の02:00(UTC)に作成
西の風 2kt
気温 -7°C
湿度 79%
気圧 1021 hPa
視程: 14.5km
高度5600ftの曇り

METAR: CYWA 070200Z AUTO 27002KT 9SM OVC056 M07/M10 A3015 RMK SLP219

時間: 21:36 (02:36 UTC)

予報

当レポートは3時間3分前の23:33(UTC)に作成
予報は07日の 00時(UTC)から 07日の 12時(UTC)まで有効
変向風 3kt
視程: 10km
高度8000ftの雲は散在している
07日の 0300時(UTC)から
変向風 3kt
視程: 10km
高度2000ftの雲は散在している
高度4000ftの千切れ雲あり
07日の 03時(UTC)から 07日の 06時(UTC)まで一時的に
視程: 4.8km
高度2000ftの千切れ雲あり
高度4000ftの曇り
弱いにわか雪
07日の 10時(UTC)から 07日の 12時(UTC)まで徐々に
北西の風 8kt

TAF: CYWA 062333Z 0700/0712 VRB03KT P6SM SCT080 FM070300 VRB03KT P6SM SCT020 BKN040 TEMPO 0703/0706 3SM -SHSN BKN020 OVC040 BECMG 0710/0712 31008KT RMK FCST BASED ON AUTO OBS. NXT FCST BY 070600Z

4,000以上の空港の気象観測と天気予報(METAR報とTAF報)

利用可能な観測所は地図上に黄色い丸と赤い丸で示す。

丸の上にカーソルを重ねると観測所名を参照できる。

次にクリックすると気象観測と天気予報を参照できる。

マップの切り替え:黒色「×」印の緑ボタンをクリックして拡大、「-」印の緑ボタンをクリックして縮小、緑色の三角印をクリックして隣りの地図に切り替え


METAR-TAF: